createdAt,value
2017-05-14T00:00:35.457Z,1011.81
2017-05-14T00:01:36.874Z,1011.81
2017-05-14T00:02:38.296Z,1011.84
2017-05-14T00:03:39.710Z,1011.86
2017-05-14T00:04:41.128Z,1011.85
2017-05-14T00:05:42.546Z,1011.89
2017-05-14T00:06:43.963Z,1011.89
2017-05-14T00:07:45.379Z,1011.87
2017-05-14T00:08:46.797Z,1011.85
2017-05-14T00:09:48.211Z,1011.84
2017-05-14T00:10:49.628Z,1011.88
2017-05-14T00:11:51.047Z,1011.86
2017-05-14T00:12:52.466Z,1011.86
2017-05-14T00:13:53.883Z,1011.87
2017-05-14T00:14:55.299Z,1011.88
2017-05-14T00:15:56.714Z,1011.90
2017-05-14T00:16:58.167Z,1011.93
2017-05-14T00:17:59.547Z,1011.89
2017-05-14T00:19:01.013Z,1011.90
2017-05-14T00:20:02.384Z,1011.96
2017-05-14T00:21:03.803Z,1011.93
2017-05-14T00:22:05.218Z,1011.98
2017-05-14T00:23:06.633Z,1011.95
2017-05-14T00:24:08.052Z,1011.97
2017-05-14T00:25:09.470Z,1011.97
2017-05-14T00:26:10.886Z,1012.00
2017-05-14T00:27:12.306Z,1012.00
2017-05-14T00:28:13.727Z,1012.01
2017-05-14T00:29:15.143Z,1012.05
2017-05-14T00:30:16.557Z,1012.05
2017-05-14T00:31:17.974Z,1012.06
2017-05-14T00:32:19.389Z,1012.04
2017-05-14T00:33:20.807Z,1012.09
2017-05-14T00:34:22.227Z,1012.07
2017-05-14T00:35:23.644Z,1012.08
2017-05-14T00:36:25.059Z,1012.07
2017-05-14T00:37:26.473Z,1012.04
2017-05-14T00:38:27.891Z,1012.05
2017-05-14T00:39:29.349Z,1012.07
2017-05-14T00:40:30.727Z,1012.12
2017-05-14T00:41:32.146Z,1012.05
2017-05-14T00:42:33.565Z,1012.08
2017-05-14T00:43:34.980Z,1012.10
2017-05-14T00:44:36.394Z,1012.08
2017-05-14T00:45:37.812Z,1012.08
2017-05-14T00:46:39.229Z,1012.07
2017-05-14T00:47:40.647Z,1012.06
2017-05-14T00:48:42.065Z,1012.14
2017-05-14T00:49:43.488Z,1012.10
2017-05-14T00:50:44.903Z,1012.10
2017-05-14T00:51:46.321Z,1012.13
2017-05-14T00:52:47.737Z,1012.14
2017-05-14T00:53:49.155Z,1012.15
2017-05-14T00:54:50.571Z,1012.17
2017-05-14T00:55:51.989Z,1012.15
2017-05-14T00:56:53.408Z,1012.15
2017-05-14T00:57:54.824Z,1012.19
2017-05-14T00:58:56.238Z,1012.17
2017-05-14T00:59:57.654Z,1012.22
2017-05-14T01:00:59.071Z,1012.22
2017-05-14T01:02:00.488Z,1012.23
2017-05-14T01:03:01.905Z,1012.21
2017-05-14T01:04:03.324Z,1012.21
2017-05-14T01:05:04.738Z,1012.19
2017-05-14T01:06:06.152Z,1012.21
2017-05-14T01:07:07.570Z,1012.21
2017-05-14T01:08:08.988Z,1012.24
2017-05-14T01:09:10.404Z,1012.24
2017-05-14T01:10:11.823Z,1012.26
2017-05-14T01:11:13.246Z,1012.25
2017-05-14T01:12:14.659Z,1012.25
2017-05-14T01:13:16.074Z,1012.27
2017-05-14T01:14:17.491Z,1012.24
2017-05-14T01:15:18.909Z,1012.24
2017-05-14T01:16:20.328Z,1012.24
2017-05-14T01:17:21.745Z,1012.30
2017-05-14T01:18:23.166Z,1012.30
2017-05-14T01:19:24.581Z,1012.34
2017-05-14T01:20:25.996Z,1012.32
2017-05-14T01:21:27.417Z,1012.31
2017-05-14T01:22:28.829Z,1012.37
2017-05-14T01:23:30.248Z,1012.40
2017-05-14T01:24:31.666Z,1012.36
2017-05-14T01:25:33.091Z,1012.35
2017-05-14T01:26:34.501Z,1012.34
2017-05-14T01:27:35.916Z,1012.36
2017-05-14T01:28:37.331Z,1012.34
2017-05-14T01:29:38.748Z,1012.36
2017-05-14T01:30:40.166Z,1012.35
2017-05-14T01:31:41.586Z,1012.32
2017-05-14T01:32:43.006Z,1012.33
2017-05-14T01:33:44.418Z,1012.29
2017-05-14T01:34:45.832Z,1012.33
2017-05-14T01:35:47.255Z,1012.34
2017-05-14T01:36:48.666Z,1012.35
2017-05-14T01:37:50.086Z,1012.42
2017-05-14T01:38:51.504Z,1012.39
2017-05-14T01:39:52.922Z,1012.36
2017-05-14T01:40:54.337Z,1012.39
2017-05-14T01:41:55.753Z,1012.35
2017-05-14T01:42:57.170Z,1012.38
2017-05-14T01:43:58.588Z,1012.36
2017-05-14T01:45:00.007Z,1012.39
2017-05-14T01:46:01.424Z,1012.38
2017-05-14T01:47:02.845Z,1012.42
2017-05-14T01:48:04.260Z,1012.40
2017-05-14T01:49:05.674Z,1012.44
2017-05-14T01:50:07.091Z,1012.42
2017-05-14T01:51:08.508Z,1012.45
2017-05-14T01:52:09.925Z,1012.45
2017-05-14T01:53:11.345Z,1012.47
2017-05-14T01:54:12.764Z,1012.48
2017-05-14T01:55:14.177Z,1012.52
2017-05-14T01:56:15.593Z,1012.47
2017-05-14T01:57:17.010Z,1012.50
2017-05-14T01:58:18.427Z,1012.44
2017-05-14T01:59:19.846Z,1012.50
2017-05-14T02:00:21.264Z,1012.46
2017-05-14T02:01:22.681Z,1012.50
2017-05-14T02:02:24.097Z,1012.49
2017-05-14T02:03:25.512Z,1012.52
2017-05-14T02:04:26.928Z,1012.52
2017-05-14T02:05:28.345Z,1012.54
2017-05-14T02:06:29.762Z,1012.50
2017-05-14T02:07:31.181Z,1012.50
2017-05-14T02:08:32.597Z,1012.52
2017-05-14T02:09:34.014Z,1012.48
2017-05-14T02:10:35.429Z,1012.50
2017-05-14T02:11:36.846Z,1012.50
2017-05-14T02:12:38.262Z,1012.49
2017-05-14T02:13:39.681Z,1012.57
2017-05-14T02:14:41.101Z,1012.50
2017-05-14T02:15:42.521Z,1012.54
2017-05-14T02:16:43.936Z,1012.57
2017-05-14T02:17:45.350Z,1012.55
2017-05-14T02:18:46.767Z,1012.59
2017-05-14T02:19:48.183Z,1012.59
2017-05-14T02:20:49.603Z,1012.60
2017-05-14T02:21:51.020Z,1012.63
2017-05-14T02:22:52.439Z,1012.64
2017-05-14T02:23:53.857Z,1012.64
2017-05-14T02:24:55.270Z,1012.66
2017-05-14T02:25:56.686Z,1012.68
2017-05-14T02:26:58.103Z,1012.67
2017-05-14T02:27:59.522Z,1012.68
2017-05-14T02:29:00.939Z,1012.68
2017-05-14T02:30:02.357Z,1012.68
2017-05-14T02:31:03.772Z,1012.72
2017-05-14T02:32:05.188Z,1012.76
2017-05-14T02:33:06.605Z,1012.75
2017-05-14T02:34:08.021Z,1012.74
2017-05-14T02:35:09.440Z,1012.74
2017-05-14T02:36:10.860Z,1012.72
2017-05-14T02:37:12.278Z,1012.76
2017-05-14T02:38:13.690Z,1012.79
2017-05-14T02:39:15.107Z,1012.80
2017-05-14T02:40:16.526Z,1012.79
2017-05-14T02:41:17.939Z,1012.77
2017-05-14T02:42:19.358Z,1012.78
2017-05-14T02:43:20.777Z,1012.83
2017-05-14T02:44:22.197Z,1012.81
2017-05-14T02:45:23.613Z,1012.86
2017-05-14T02:46:25.027Z,1012.85
2017-05-14T02:47:26.442Z,1012.82
2017-05-14T02:48:27.861Z,1012.80
2017-05-14T02:49:29.277Z,1012.79
2017-05-14T02:50:30.694Z,1012.80
2017-05-14T02:51:32.113Z,1012.76
2017-05-14T02:52:33.529Z,1012.81
2017-05-14T02:53:34.943Z,1012.78
2017-05-14T02:54:36.360Z,1012.81
2017-05-14T02:55:37.777Z,1012.80
2017-05-14T02:56:39.196Z,1012.84
2017-05-14T02:57:40.618Z,1012.85
2017-05-14T02:58:42.032Z,1012.83
2017-05-14T02:59:43.449Z,1012.85
2017-05-14T03:00:44.864Z,1012.90
2017-05-14T03:01:46.282Z,1012.90
2017-05-14T03:02:47.697Z,1012.88
2017-05-14T03:03:49.114Z,1012.86
2017-05-14T03:04:50.533Z,1012.85
2017-05-14T03:05:51.953Z,1012.84
2017-05-14T03:06:53.366Z,1012.84
2017-05-14T03:07:54.781Z,1012.82
2017-05-14T03:08:56.196Z,1012.88
2017-05-14T03:09:57.615Z,1012.86
2017-05-14T03:10:59.034Z,1012.87
2017-05-14T03:12:00.452Z,1012.89
2017-05-14T03:13:01.925Z,1012.93
2017-05-14T03:14:03.339Z,1012.88
2017-05-14T03:15:04.754Z,1012.88
2017-05-14T03:16:06.169Z,1012.89
2017-05-14T03:17:07.588Z,1012.89
2017-05-14T03:18:09.003Z,1012.89
2017-05-14T03:19:10.422Z,1012.91
2017-05-14T03:20:11.840Z,1012.92
2017-05-14T03:21:13.254Z,1012.94
2017-05-14T03:22:14.668Z,1012.90
2017-05-14T03:23:16.090Z,1012.90
2017-05-14T03:24:17.504Z,1012.89
2017-05-14T03:25:18.921Z,1012.93
2017-05-14T03:26:20.340Z,1012.87
2017-05-14T03:27:21.756Z,1012.92
2017-05-14T03:28:23.172Z,1012.89
2017-05-14T03:29:24.586Z,1012.93
2017-05-14T03:30:26.044Z,1012.89
2017-05-14T03:31:27.417Z,1012.90
2017-05-14T03:32:28.835Z,1012.90
2017-05-14T03:33:30.254Z,1012.92
2017-05-14T03:34:31.671Z,1012.90
2017-05-14T03:35:33.085Z,1012.93
2017-05-14T03:36:34.502Z,1012.94
2017-05-14T03:37:35.918Z,1012.95
2017-05-14T03:38:37.335Z,1012.97
2017-05-14T03:39:38.752Z,1012.93
2017-05-14T03:40:40.170Z,1012.92
2017-05-14T03:41:41.592Z,1012.96
2017-05-14T03:42:43.009Z,1012.96
2017-05-14T03:43:44.423Z,1012.95
2017-05-14T03:44:45.839Z,1012.94
2017-05-14T03:45:47.258Z,1012.96
2017-05-14T03:46:48.675Z,1012.97
2017-05-14T03:47:50.093Z,1012.99
2017-05-14T03:48:51.513Z,1012.96
2017-05-14T03:49:52.931Z,1013.00
2017-05-14T03:50:54.346Z,1012.97
2017-05-14T03:51:55.762Z,1013.00
2017-05-14T03:52:57.178Z,1013.00
2017-05-14T03:53:58.598Z,1013.00
2017-05-14T03:55:00.019Z,1013.03
2017-05-14T03:56:01.436Z,1012.98
2017-05-14T03:57:02.851Z,1012.99
2017-05-14T03:58:04.267Z,1013.01
2017-05-14T03:59:05.683Z,1012.98
2017-05-14T04:00:07.102Z,1013.00
2017-05-14T04:01:08.524Z,1013.01
2017-05-14T04:02:09.944Z,1012.97
2017-05-14T04:03:11.364Z,1012.99
2017-05-14T04:04:12.781Z,1013.00
2017-05-14T04:05:14.198Z,1013.02
2017-05-14T04:06:15.616Z,1013.01
2017-05-14T04:07:17.036Z,1013.04
2017-05-14T04:08:18.452Z,1013.02
2017-05-14T04:09:19.873Z,1013.01
2017-05-14T04:10:21.294Z,1013.03
2017-05-14T04:11:22.715Z,1013.04
2017-05-14T04:12:24.135Z,1013.03
2017-05-14T04:13:25.553Z,1013.04
2017-05-14T04:14:26.975Z,1013.06
2017-05-14T04:15:28.393Z,1013.09
2017-05-14T04:16:29.814Z,1013.14
2017-05-14T04:17:31.237Z,1013.16
2017-05-14T04:18:32.657Z,1013.12
2017-05-14T04:19:34.077Z,1013.13
2017-05-14T04:20:35.497Z,1013.14
2017-05-14T04:21:36.918Z,1013.13
2017-05-14T04:22:38.336Z,1013.15
2017-05-14T04:23:39.762Z,1013.14
2017-05-14T04:24:41.182Z,1013.09
2017-05-14T04:25:42.601Z,1013.11
2017-05-14T04:26:44.017Z,1013.09
2017-05-14T04:27:45.437Z,1013.11
2017-05-14T04:28:46.855Z,1013.13
2017-05-14T04:29:48.275Z,1013.13
2017-05-14T04:30:49.698Z,1013.13
2017-05-14T04:31:51.122Z,1013.14
2017-05-14T04:32:52.541Z,1013.11
2017-05-14T04:33:53.962Z,1013.12
2017-05-14T04:34:55.378Z,1013.15
2017-05-14T04:35:56.796Z,1013.16
2017-05-14T04:36:58.217Z,1013.12
2017-05-14T04:37:59.641Z,1013.09
2017-05-14T04:39:01.064Z,1013.10
2017-05-14T04:40:02.481Z,1013.13
2017-05-14T04:41:03.899Z,1013.12
2017-05-14T04:42:05.327Z,1013.11
2017-05-14T04:43:06.747Z,1013.08
2017-05-14T04:44:08.170Z,1013.09
2017-05-14T04:45:09.593Z,1013.13
2017-05-14T04:46:11.013Z,1013.06
2017-05-14T04:47:12.432Z,1013.13
2017-05-14T04:48:13.852Z,1013.13
2017-05-14T04:49:15.274Z,1013.10
2017-05-14T04:50:16.693Z,1013.13
2017-05-14T04:51:18.114Z,1013.09
2017-05-14T04:52:19.535Z,1013.14
2017-05-14T04:53:20.957Z,1013.17
2017-05-14T04:54:22.379Z,1013.19
2017-05-14T04:55:23.799Z,1013.11
2017-05-14T04:56:25.217Z,1013.13
2017-05-14T04:57:26.638Z,1013.09
2017-05-14T04:58:28.060Z,1013.15
2017-05-14T04:59:29.484Z,1013.15
2017-05-14T05:00:30.911Z,1013.21
2017-05-14T05:01:32.324Z,1013.18
2017-05-14T05:02:33.749Z,1013.26
2017-05-14T05:03:35.163Z,1013.27
2017-05-14T05:04:36.581Z,1013.27
2017-05-14T05:05:38.042Z,1013.26
2017-05-14T05:06:39.427Z,1013.29
2017-05-14T05:07:40.848Z,1013.28
2017-05-14T05:08:42.267Z,1013.33
2017-05-14T05:09:43.684Z,1013.37
2017-05-14T05:10:45.110Z,1013.32
2017-05-14T05:11:46.525Z,1013.31
2017-05-14T05:12:47.946Z,1013.35
2017-05-14T05:13:49.369Z,1013.45
2017-05-14T05:14:50.796Z,1013.43
2017-05-14T05:15:52.210Z,1013.47
2017-05-14T05:16:53.627Z,1013.48
2017-05-14T05:17:55.048Z,1013.45
2017-05-14T05:18:56.467Z,1013.43
2017-05-14T05:19:57.890Z,1013.46
2017-05-14T05:20:59.311Z,1013.47
2017-05-14T05:22:00.735Z,1013.44
2017-05-14T05:23:02.161Z,1013.44
2017-05-14T05:24:03.579Z,1013.40
2017-05-14T05:25:04.999Z,1013.41
2017-05-14T05:26:06.418Z,1013.39
2017-05-14T05:27:07.839Z,1013.40
2017-05-14T05:28:09.261Z,1013.39
2017-05-14T05:29:10.682Z,1013.43
2017-05-14T05:30:12.104Z,1013.42
2017-05-14T05:31:13.524Z,1013.41
2017-05-14T05:32:15.084Z,1013.45
2017-05-14T05:33:16.504Z,1013.44
2017-05-14T05:34:17.925Z,1013.46
2017-05-14T05:35:19.358Z,1013.49
2017-05-14T05:36:20.802Z,1013.49
2017-05-14T05:37:22.224Z,1013.50
2017-05-14T05:38:23.636Z,1013.50
2017-05-14T05:39:25.488Z,1013.54
2017-05-14T05:40:26.913Z,1013.54
2017-05-14T05:41:28.658Z,1013.57
2017-05-14T05:42:30.881Z,1013.56
2017-05-14T05:43:32.797Z,1013.58
2017-05-14T05:44:34.692Z,1013.57
2017-05-14T05:45:36.124Z,1013.54
2017-05-14T05:46:38.060Z,1013.57
2017-05-14T05:47:39.513Z,1013.61
2017-05-14T05:48:40.936Z,1013.56
2017-05-14T05:49:42.358Z,1013.55
2017-05-14T05:50:45.474Z,1013.61
2017-05-14T05:51:46.899Z,1013.60
2017-05-14T05:52:48.322Z,1013.63
2017-05-14T05:53:49.759Z,1013.66
2017-05-14T05:54:51.175Z,1013.65
2017-05-14T05:55:52.597Z,1013.65
2017-05-14T05:56:54.021Z,1013.66
2017-05-14T05:57:55.444Z,1013.69
2017-05-14T05:58:56.863Z,1013.70
2017-05-14T05:59:58.278Z,1013.72
2017-05-14T06:00:59.707Z,1013.69
2017-05-14T06:02:01.122Z,1013.74
2017-05-14T06:03:02.544Z,1013.72
2017-05-14T06:04:03.966Z,1013.77
2017-05-14T06:05:05.387Z,1013.74
2017-05-14T06:06:06.805Z,1013.73
2017-05-14T06:07:08.226Z,1013.73
2017-05-14T06:08:09.649Z,1013.71
2017-05-14T06:09:11.071Z,1013.71
2017-05-14T06:10:13.245Z,1013.70
2017-05-14T06:11:14.666Z,1013.76
2017-05-14T06:12:16.092Z,1013.78
2017-05-14T06:13:17.509Z,1013.81
2017-05-14T06:14:18.930Z,1013.82
2017-05-14T06:15:20.384Z,1013.88
2017-05-14T06:16:21.806Z,1013.88
2017-05-14T06:17:23.226Z,1013.90
2017-05-14T06:18:24.651Z,1013.88
2017-05-14T06:19:26.071Z,1013.90
2017-05-14T06:20:27.491Z,1013.92
2017-05-14T06:21:28.909Z,1013.92
2017-05-14T06:22:30.329Z,1013.90
2017-05-14T06:23:31.747Z,1013.93
2017-05-14T06:24:33.167Z,1013.92
2017-05-14T06:25:34.589Z,1013.89
2017-05-14T06:26:36.011Z,1013.91
2017-05-14T06:27:37.431Z,1013.91
2017-05-14T06:28:38.852Z,1013.92
2017-05-14T06:29:40.273Z,1013.93
2017-05-14T06:30:41.692Z,1013.96
2017-05-14T06:31:43.115Z,1013.94
2017-05-14T06:32:44.537Z,1013.90
2017-05-14T06:33:45.970Z,1013.89
2017-05-14T06:34:47.428Z,1013.95
2017-05-14T06:35:48.846Z,1013.96
2017-05-14T06:36:50.267Z,1013.98
2017-05-14T06:37:51.688Z,1014.00
2017-05-14T06:38:53.113Z,1013.99
2017-05-14T06:39:54.533Z,1013.98
2017-05-14T06:40:55.959Z,1013.99
2017-05-14T06:41:57.374Z,1014.01
2017-05-14T06:42:58.797Z,1014.00
2017-05-14T06:44:00.215Z,1013.98
2017-05-14T06:45:01.637Z,1014.01
2017-05-14T06:46:03.075Z,1014.00
2017-05-14T06:47:04.496Z,1014.02
2017-05-14T06:48:05.922Z,1014.05
2017-05-14T06:49:07.341Z,1014.06
2017-05-14T06:50:08.761Z,1014.11
2017-05-14T06:51:10.182Z,1014.10
2017-05-14T06:52:11.601Z,1014.09
2017-05-14T06:53:13.027Z,1014.09
2017-05-14T06:54:14.446Z,1014.09
2017-05-14T06:55:15.866Z,1014.07
2017-05-14T06:56:17.291Z,1014.12
2017-05-14T06:57:18.705Z,1014.14
2017-05-14T06:58:20.124Z,1014.05
2017-05-14T06:59:21.551Z,1014.10
2017-05-14T07:00:22.971Z,1014.08
2017-05-14T07:01:24.392Z,1014.18
2017-05-14T07:02:25.814Z,1014.10
2017-05-14T07:03:27.233Z,1014.11
2017-05-14T07:04:28.700Z,1014.13
2017-05-14T07:05:30.133Z,1014.12
2017-05-14T07:06:31.556Z,1014.13
2017-05-14T07:07:33.013Z,1014.12
2017-05-14T07:08:34.439Z,1014.14
2017-05-14T07:09:35.859Z,1014.13
2017-05-14T07:10:37.277Z,1014.08
2017-05-14T07:11:38.695Z,1014.13
2017-05-14T07:12:40.122Z,1014.11
2017-05-14T07:13:41.567Z,1014.11
2017-05-14T07:14:43.045Z,1014.11
2017-05-14T07:15:44.487Z,1014.11
2017-05-14T07:16:45.909Z,1014.12
2017-05-14T07:17:47.331Z,1014.14
2017-05-14T07:18:48.785Z,1014.16
2017-05-14T07:19:50.247Z,1014.14
2017-05-14T07:20:51.628Z,1014.15
2017-05-14T07:21:53.059Z,1014.12
2017-05-14T07:22:54.478Z,1014.13
2017-05-14T07:23:55.902Z,1014.17
2017-05-14T07:24:57.321Z,1014.25
2017-05-14T07:25:58.830Z,1014.28
2017-05-14T07:27:00.251Z,1014.31
2017-05-14T07:28:01.672Z,1014.29
2017-05-14T07:29:03.093Z,1014.35
2017-05-14T07:30:04.514Z,1014.34
2017-05-14T07:31:05.937Z,1014.40
2017-05-14T07:32:07.358Z,1014.37
2017-05-14T07:33:08.777Z,1014.35
2017-05-14T07:34:10.200Z,1014.34
2017-05-14T07:35:11.617Z,1014.39
2017-05-14T07:36:13.039Z,1014.40
2017-05-14T07:37:14.461Z,1014.40
2017-05-14T07:38:15.884Z,1014.42
2017-05-14T07:39:17.303Z,1014.54
2017-05-14T07:40:18.723Z,1014.50
2017-05-14T07:41:20.141Z,1014.50
2017-05-14T07:42:21.561Z,1014.54
2017-05-14T07:43:22.982Z,1014.52
2017-05-14T07:44:24.407Z,1014.52
2017-05-14T07:45:25.829Z,1014.54
2017-05-14T07:46:27.246Z,1014.53
2017-05-14T07:47:28.666Z,1014.52
2017-05-14T07:48:30.089Z,1014.53
2017-05-14T07:49:31.509Z,1014.52
2017-05-14T07:50:32.934Z,1014.62
2017-05-14T07:51:34.365Z,1014.63
2017-05-14T07:52:35.789Z,1014.58
2017-05-14T07:53:37.214Z,1014.70
2017-05-14T07:54:38.637Z,1014.68
2017-05-14T07:55:40.059Z,1014.69
2017-05-14T07:56:41.483Z,1014.73
2017-05-14T07:57:42.907Z,1014.75
2017-05-14T07:58:44.329Z,1014.79
2017-05-14T07:59:45.756Z,1014.79
2017-05-14T08:00:47.182Z,1014.76
2017-05-14T08:01:48.600Z,1014.76
2017-05-14T08:02:50.069Z,1014.78
2017-05-14T08:03:51.447Z,1014.80
2017-05-14T08:04:52.872Z,1014.81
2017-05-14T08:05:54.294Z,1014.76
2017-05-14T08:06:55.719Z,1014.84
2017-05-14T08:07:57.145Z,1014.82
2017-05-14T08:08:58.565Z,1014.81
2017-05-14T08:09:59.987Z,1014.85
2017-05-14T08:11:01.406Z,1014.82
2017-05-14T08:12:02.833Z,1014.81
2017-05-14T08:13:04.259Z,1014.83
2017-05-14T08:14:05.679Z,1014.82
2017-05-14T08:15:07.101Z,1014.79
2017-05-14T08:16:08.536Z,1014.89
2017-05-14T08:17:10.008Z,1014.87
2017-05-14T08:18:11.429Z,1014.85
2017-05-14T08:19:12.849Z,1014.91
2017-05-14T08:20:14.275Z,1014.92
2017-05-14T08:21:15.696Z,1014.92
2017-05-14T08:22:17.116Z,1014.92
2017-05-14T08:23:18.537Z,1014.97
2017-05-14T08:24:19.956Z,1014.87
2017-05-14T08:25:21.377Z,1014.87
2017-05-14T08:26:22.799Z,1014.90
2017-05-14T08:27:24.221Z,1014.88
2017-05-14T08:28:25.642Z,1014.90
2017-05-14T08:29:27.060Z,1014.88
2017-05-14T08:30:28.479Z,1014.90
2017-05-14T08:31:29.898Z,1014.90
2017-05-14T08:32:31.320Z,1014.91
2017-05-14T08:33:32.749Z,1014.96
2017-05-14T08:34:34.171Z,1014.91
2017-05-14T08:35:35.594Z,1014.93
2017-05-14T08:36:37.042Z,1014.96
2017-05-14T08:37:38.463Z,1015.01
2017-05-14T08:38:39.883Z,1014.97
2017-05-14T08:39:41.305Z,1014.98
2017-05-14T08:40:42.728Z,1014.96
2017-05-14T08:41:44.151Z,1014.96
2017-05-14T08:42:45.614Z,1014.98
2017-05-14T08:43:46.990Z,1014.97
2017-05-14T08:44:48.410Z,1014.99
2017-05-14T08:45:49.830Z,1015.03
2017-05-14T08:46:51.251Z,1015.06
2017-05-14T08:47:52.675Z,1015.09
2017-05-14T08:48:54.096Z,1015.09
2017-05-14T08:49:55.517Z,1015.08
2017-05-14T08:50:56.939Z,1015.06
2017-05-14T08:51:58.364Z,1015.08
2017-05-14T08:52:59.827Z,1015.10
2017-05-14T08:54:01.245Z,1015.06
2017-05-14T08:55:02.666Z,1015.10
2017-05-14T08:56:04.088Z,1015.08
2017-05-14T08:57:05.512Z,1015.07
2017-05-14T08:58:06.931Z,1015.06
2017-05-14T08:59:08.353Z,1015.11
2017-05-14T09:00:09.771Z,1015.11
2017-05-14T09:01:11.190Z,1015.11
2017-05-14T09:02:12.613Z,1015.13
2017-05-14T09:03:14.034Z,1015.16
2017-05-14T09:04:15.457Z,1015.13
2017-05-14T09:05:16.874Z,1015.19
2017-05-14T09:06:18.294Z,1015.21
2017-05-14T09:07:19.714Z,1015.20
2017-05-14T09:08:21.134Z,1015.22
2017-05-14T09:09:22.570Z,1015.22
2017-05-14T09:10:23.988Z,1015.25
2017-05-14T09:11:25.412Z,1015.24
2017-05-14T09:12:26.829Z,1015.25
2017-05-14T09:13:28.258Z,1015.26
2017-05-14T09:14:29.676Z,1015.28
2017-05-14T09:15:31.100Z,1015.27
2017-05-14T09:16:32.519Z,1015.31
2017-05-14T09:17:33.996Z,1015.30
2017-05-14T09:18:35.416Z,1015.32
2017-05-14T09:19:36.833Z,1015.30
2017-05-14T09:20:38.260Z,1015.28
2017-05-14T09:21:39.681Z,1015.33
2017-05-14T09:22:41.102Z,1015.29
2017-05-14T09:23:42.524Z,1015.27
2017-05-14T09:24:43.951Z,1015.29
2017-05-14T09:25:45.372Z,1015.26
2017-05-14T09:26:46.814Z,1015.26
2017-05-14T09:27:48.234Z,1015.24
2017-05-14T09:28:49.656Z,1015.28
2017-05-14T09:29:51.077Z,1015.27
2017-05-14T09:30:52.502Z,1015.20
2017-05-14T09:31:53.938Z,1015.22
2017-05-14T09:32:55.350Z,1015.19
2017-05-14T09:33:56.773Z,1015.17
2017-05-14T09:34:58.196Z,1015.19
2017-05-14T09:35:59.620Z,1015.16
2017-05-14T09:37:01.046Z,1015.19
2017-05-14T09:38:02.471Z,1015.19
2017-05-14T09:39:03.894Z,1015.27
2017-05-14T09:40:05.329Z,1015.29
2017-05-14T09:41:06.762Z,1015.29
2017-05-14T09:42:08.184Z,1015.29
2017-05-14T09:43:09.609Z,1015.30
2017-05-14T09:44:11.031Z,1015.34
2017-05-14T09:45:12.455Z,1015.41
2017-05-14T09:46:13.877Z,1015.36
2017-05-14T09:47:15.301Z,1015.41
2017-05-14T09:48:16.723Z,1015.39
2017-05-14T09:49:18.146Z,1015.40
2017-05-14T09:50:19.574Z,1015.40
2017-05-14T09:51:20.994Z,1015.42
2017-05-14T09:52:22.438Z,1015.40
2017-05-14T09:53:23.852Z,1015.40
2017-05-14T09:54:25.341Z,1015.40
2017-05-14T09:55:26.761Z,1015.41
2017-05-14T09:56:28.186Z,1015.39
2017-05-14T09:57:29.609Z,1015.36
2017-05-14T09:58:31.032Z,1015.38
2017-05-14T09:59:32.456Z,1015.34
2017-05-14T10:00:33.880Z,1015.32
2017-05-14T10:01:35.307Z,1015.33
2017-05-14T10:02:36.725Z,1015.29
2017-05-14T10:03:38.149Z,1015.33
2017-05-14T10:04:39.569Z,1015.26
2017-05-14T10:05:40.991Z,1015.29
2017-05-14T10:06:42.468Z,1015.25
2017-05-14T10:07:43.893Z,1015.21
2017-05-14T10:08:45.334Z,1015.27
2017-05-14T10:09:46.758Z,1015.23
2017-05-14T10:10:48.178Z,1015.23
2017-05-14T10:11:49.609Z,1015.21
2017-05-14T10:12:51.029Z,1015.18
2017-05-14T10:13:52.451Z,1015.25
2017-05-14T10:14:53.876Z,1015.24
2017-05-14T10:15:55.301Z,1015.23
2017-05-14T10:16:56.724Z,1015.24
2017-05-14T10:17:58.160Z,1015.20
2017-05-14T10:18:59.595Z,1015.21
2017-05-14T10:20:01.053Z,1015.15
2017-05-14T10:21:02.464Z,1015.15
2017-05-14T10:22:03.904Z,1015.18
2017-05-14T10:23:05.330Z,1015.17
2017-05-14T10:24:06.751Z,1015.17
2017-05-14T10:25:08.172Z,1015.22
2017-05-14T10:26:10.828Z,1015.18
2017-05-14T10:27:12.250Z,1015.22
2017-05-14T10:28:13.672Z,1015.19
2017-05-14T10:29:15.099Z,1015.20
2017-05-14T10:30:16.524Z,1015.17
2017-05-14T10:31:17.946Z,1015.19
2017-05-14T10:32:19.364Z,1015.21
2017-05-14T10:33:20.792Z,1015.24
2017-05-14T10:34:22.210Z,1015.26
2017-05-14T10:35:23.632Z,1015.25
2017-05-14T10:36:25.259Z,1015.29
2017-05-14T10:37:26.744Z,1015.25
2017-05-14T10:38:28.157Z,1015.30
2017-05-14T10:39:29.576Z,1015.29
2017-05-14T10:40:30.998Z,1015.28
2017-05-14T10:41:32.422Z,1015.33
2017-05-14T10:42:33.864Z,1015.31
2017-05-14T10:43:35.289Z,1015.30
2017-05-14T10:44:36.716Z,1015.30
2017-05-14T10:45:38.157Z,1015.28
2017-05-14T10:46:39.586Z,1015.25
2017-05-14T10:47:41.010Z,1015.25
2017-05-14T10:48:43.529Z,1015.25
2017-05-14T10:49:46.335Z,1015.24
2017-05-14T10:50:47.729Z,1015.23
2017-05-14T10:51:49.154Z,1015.22
2017-05-14T10:52:50.591Z,1015.24
2017-05-14T10:53:52.013Z,1015.26
2017-05-14T10:54:53.482Z,1015.25
2017-05-14T10:55:54.904Z,1015.23
2017-05-14T10:56:56.339Z,1015.28
2017-05-14T10:57:57.779Z,1015.26
2017-05-14T10:58:59.306Z,1015.24
2017-05-14T11:00:00.862Z,1015.26
2017-05-14T11:01:02.318Z,1015.22
2017-05-14T11:02:03.742Z,1015.21
2017-05-14T11:03:05.231Z,1015.24
2017-05-14T11:04:06.655Z,1015.29
2017-05-14T11:05:08.097Z,1015.27
2017-05-14T11:06:09.572Z,1015.24
2017-05-14T11:07:11.000Z,1015.28
2017-05-14T11:08:12.422Z,1015.30
2017-05-14T11:09:13.848Z,1015.29
2017-05-14T11:10:15.274Z,1015.35
2017-05-14T11:11:16.700Z,1015.32
2017-05-14T11:12:18.180Z,1015.37
2017-05-14T11:13:19.697Z,1015.38
2017-05-14T11:14:21.126Z,1015.39
2017-05-14T11:15:22.564Z,1015.44
2017-05-14T11:16:23.986Z,1015.42
2017-05-14T11:17:25.411Z,1015.43
2017-05-14T11:18:26.834Z,1015.42
2017-05-14T11:19:28.259Z,1015.46
2017-05-14T11:20:29.711Z,1015.45
2017-05-14T11:21:31.163Z,1015.46
2017-05-14T11:22:32.585Z,1015.46
2017-05-14T11:23:34.010Z,1015.47
2017-05-14T11:24:35.431Z,1015.44
2017-05-14T11:25:36.859Z,1015.49
2017-05-14T11:26:38.313Z,1015.47
2017-05-14T11:27:39.731Z,1015.48
2017-05-14T11:28:41.155Z,1015.51
2017-05-14T11:29:42.578Z,1015.50
2017-05-14T11:30:45.932Z,1015.50
2017-05-14T11:31:47.358Z,1015.51
2017-05-14T11:32:48.780Z,1015.54
2017-05-14T11:33:50.219Z,1015.51
2017-05-14T11:34:51.645Z,1015.51
2017-05-14T11:35:53.087Z,1015.49
2017-05-14T11:36:54.845Z,1015.49
2017-05-14T11:37:56.307Z,1015.48
2017-05-14T11:38:58.565Z,1015.47
2017-05-14T11:40:02.908Z,1015.43
2017-05-14T11:41:04.354Z,1015.42
2017-05-14T11:42:06.612Z,1015.45
2017-05-14T11:43:08.038Z,1015.43
2017-05-14T11:44:09.463Z,1015.40
2017-05-14T11:45:11.185Z,1015.43
2017-05-14T11:46:12.793Z,1015.42
2017-05-14T11:47:15.177Z,1015.46
2017-05-14T11:48:18.583Z,1015.41
2017-05-14T11:49:21.139Z,1015.45
2017-05-14T11:50:22.561Z,1015.42
2017-05-14T11:51:23.992Z,1015.39
2017-05-14T11:52:26.040Z,1015.41
2017-05-14T11:53:28.235Z,1015.42
2017-05-14T11:54:31.110Z,1015.41
2017-05-14T11:55:36.697Z,1015.40
2017-05-14T11:56:42.076Z,1015.50
2017-05-14T11:57:46.255Z,1015.42
2017-05-14T11:58:50.420Z,1015.38
2017-05-14T11:59:55.643Z,1015.40
2017-05-14T12:00:57.019Z,1015.37
2017-05-14T12:01:58.620Z,1015.39
2017-05-14T12:03:00.046Z,1015.40
2017-05-14T12:04:01.474Z,1015.42
2017-05-14T12:05:02.896Z,1015.40
2017-05-14T12:06:08.051Z,1015.45
2017-05-14T12:07:09.473Z,1015.44
2017-05-14T12:08:10.899Z,1015.44
2017-05-14T12:09:12.331Z,1015.42
2017-05-14T12:10:13.745Z,1015.41
2017-05-14T12:11:15.189Z,1015.37
2017-05-14T12:12:17.709Z,1015.38
2017-05-14T12:13:20.513Z,1015.37
2017-05-14T12:14:21.930Z,1015.36
2017-05-14T12:15:23.351Z,1015.34
2017-05-14T12:16:24.773Z,1015.32
2017-05-14T12:17:26.201Z,1015.35
2017-05-14T12:18:27.627Z,1015.41
2017-05-14T12:19:29.050Z,1015.38
2017-05-14T12:20:30.510Z,1015.45
2017-05-14T12:21:31.938Z,1015.41
2017-05-14T12:22:33.362Z,1015.42
2017-05-14T12:23:34.786Z,1015.46